Arboga, California
Current Conditions -  °F | °C
As of 6:58 AM on Wednesday 26 Nov 2014 (Local Time) from KBAB Reporting Station
Clear Clear  
Wind Chill: 39°   Ceiling: Unl
Heat Index: 39°   Visibility: 10mi
Dew Point: 39°   Wind: 0mph
Humidity: 100%   Direction: NA
Pressure: 30.33"   Gusts: NA
Location:  39.0904°N, 121.552°W
Report Text: KBAB 261458Z AUTO 00000KT 10SM CLR 04/04 A3033 RMK AO2 SLP349 T00380038 55001 $
Loading
Personal Weather Stations






























Interactive Weather Map New forecast layout! Learn more

10-Day Weather Forecast

Advertisements
Track Severe Weather on mobile